Stations météo

réclame
Mon MeteoGroup
Leuchtturm Kiel, Allemagne (10044): Température de l'air & dewpoint: 07.12.2019 12:00:00 - 13.12.2019 12:00:00 (CET)Leuchtturm Kiel, Allemagne (10044): water temperature: 07.12.2019 12:00:00 - 13.12.2019 12:00:00 (CET)Leuchtturm Kiel, Allemagne (10044): Vitesse du vent & gusts: 07.12.2019 12:00:00 - 13.12.2019 12:00:00 (CET)Leuchtturm Kiel, Allemagne (10044): Direction du vent: 07.12.2019 12:00:00 - 13.12.2019 12:00:00 (CET)Leuchtturm Kiel, Allemagne (10044): reduced air pressure: 07.12.2019 12:00:00 - 13.12.2019 12:00:00 (CET)Leuchtturm Kiel, Allemagne (10044): Ensoleillement: 07.12.2019 12:00:00 - 13.12.2019 12:00:00 (CET)
Date & Time tt [°C] td [°C] tw [°C] ff [km/h] ff [knt] fx [km/h] fx [knt] dd ppp [hPa] sd [min]
13.12.2019 12:00:00 3,1 -0,4 6,7 38 21 50 27 SE 981,5 60
13.12.2019 11:00:00 2,7 -0,6 6,7 39 21 54 29 SE 982,3 60
13.12.2019 10:00:00 2,4 -0,7 6,7 43 23 56 31 SE 982,6 52
13.12.2019 09:00:00 2,8 -0,2 6,8 41 22 56 30 SE 982,7 0
13.12.2019 08:00:00 2,6 -0,5 6,8 49 26 61 33 SSE 983,5 0
13.12.2019 07:00:00 2,7 -0,1 6,8 44 24 57 31 SE 983,9 0
13.12.2019 06:00:00 2,7 -0,4 6,9 45 24 58 31 SE 984,6 0
13.12.2019 05:00:00 2,5 0,0 6,9 48 26 59 32 SE 985,5 0
13.12.2019 04:00:00 2,8 0,4 6,8 46 25 58 32 SE 986,5 0
13.12.2019 03:00:00 3,6 0,6 6,9 40 22 48 26 SE 988,1 0
13.12.2019 02:00:00 3,7 0,7 6,9 38 20 49 26 SSE 989,2 0
13.12.2019 01:00:00 3,7 1,0 6,9 37 20 44 24 SSE 990,4 0
13.12.2019 00:00:00 3,5 1,8 6,9 33 18 41 22 SSE 991,5 0
12.12.2019 23:00:00 3,5 1,7 6,9 32 17 42 23 SSE 992,6 0
12.12.2019 22:00:00 3,4 1,7 6,9 34 18 43 23 S 993,6 0
12.12.2019 21:00:00 3,5 2,0 6,9 40 22 47 26 S 994,4 0
12.12.2019 20:00:00 3,9 2,0 6,9 32 18 40 22 S 995,1 0
12.12.2019 19:00:00 4,2 2,5 6,9 29 16 37 20 S 995,7 0
12.12.2019 18:00:00 5,1 2,4 6,9 34 18 44 24 SSW 996,0 0
12.12.2019 17:00:00 5,3 2,7 6,9 38 20 45 24 SW 996,4 0
12.12.2019 16:00:00 5,4 3,0 6,9 35 19 42 23 SSW 996,7 0
12.12.2019 15:00:00 5,4 3,1 6,9 34 18 48 26 SW 997,1 0
12.12.2019 14:00:00 5,5 2,6 7,0 36 19 47 26 SW 997,1 0
12.12.2019 13:00:00 5,3 3,1 7,0 38 20 47 25 SSW 997,7 0
12.12.2019 12:00:00 5,3 3,3 7,0 37 20 43 23 SSW 998,1 0
12.12.2019 11:00:00 5,0 3,3 7,0 30 16 38 20 SSW 998,6 0
12.12.2019 10:00:00 4,6 2,8 7,0 29 16 36 19 SSW 999,1 0
12.12.2019 09:00:00 5,0 1,8 7,0 26 14 46 25 SSW 999,5 0
12.12.2019 08:00:00 4,7 1,3 7,0 37 20 46 25 SW 999,6 0
12.12.2019 07:00:00 4,9 3,1 7,0 32 17 37 20 SW 999,7 0
12.12.2019 06:00:00 4,7 3,3 7,0 31 17 37 20 SW 999,8 0
12.12.2019 05:00:00 4,9 3,7 7,0 26 14 31 17 SW 1000,1 0
12.12.2019 04:00:00 5,0 4,0 7,0 23 12 28 15 SW 1000,4 0
12.12.2019 03:00:00 4,9 4,1 7,0 22 12 28 15 SW 1001,0 0
12.12.2019 02:00:00 4,8 4,2 7,0 21 11 26 14 SW 1001,1 0
12.12.2019 01:00:00 5,0 4,3 7,0 22 12 26 14 SSW 1001,7 0
12.12.2019 00:00:00 4,8 4,4 7,0 20 11 23 13 SSW 1002,3 0
11.12.2019 23:00:00 4,9 4,5 7,0 19 10 23 12 S 1002,7 0
11.12.2019 22:00:00 5,1 4,6 7,0 20 11 23 12 S 1003,1 0
11.12.2019 21:00:00 5,1 4,6 7,0 16 9 27 14 S 1003,4 0
11.12.2019 20:00:00 5,1 4,5 7,0 21 11 23 13 S 1003,7 0
11.12.2019 19:00:00 5,2 4,5 7,0 21 11 27 15 SSW 1004,1 0
11.12.2019 18:00:00 5,3 4,3 7,0 19 10 29 16 S 1004,4 0
11.12.2019 17:00:00 5,4 4,2 7,0 26 14 30 16 SW 1004,8 0
11.12.2019 16:00:00 5,5 4,2 7,0 26 14 33 18 SSW 1005,0 0
11.12.2019 15:00:00 5,4 4,3 7,0 27 15 36 19 SSW 1005,2 0
11.12.2019 14:00:00 5,3 4,2 7,0 32 17 39 21 SSW 1005,4 0
11.12.2019 13:00:00 5,4 4,1 7,0 33 18 44 24 SSW 1005,9 0
11.12.2019 12:00:00 5,4 3,8 7,0 38 21 50 27 SW 1006,2 0
11.12.2019 11:00:00 5,3 3,5 7,0 44 24 54 29 SW 1006,7 0
11.12.2019 10:00:00 5,4 3,4 7,0 46 25 58 31 SSW 1006,8 0
11.12.2019 09:00:00 5,3 3,2 7,0 52 28 59 32 SSW 1006,4 0
11.12.2019 08:00:00 5,3 3,0 7,0 49 26 64 35 SSW 1006,3 0
11.12.2019 07:00:00 5,0 2,7 7,0 54 29 73 39 SSW 1006,2 0
11.12.2019 06:00:00 4,9 2,2 7,0 59 32 82 45 SSW 1005,8 0
11.12.2019 05:00:00 5,4 1,4 7,0 71 38 90 49 SSW 1005,4 0
11.12.2019 04:00:00 5,6 0,8 7,0 79 42 93 50 SSW 1005,5 0
11.12.2019 03:00:00 5,9 -0,3 7,0 68 37 84 46 SSW 1006,0 0
11.12.2019 02:00:00 5,2 -1,1 7,0 67 36 82 44 SSW 1006,4 0
11.12.2019 01:00:00 4,9 -0,5 7,0 63 34 79 43 S 1007,3 0
11.12.2019 00:00:00 4,5 -0,6 7,1 59 32 76 41 S 1008,9 0
10.12.2019 23:00:00 4,5 -0,6 7,1 55 30 74 40 S 1010,4 0
10.12.2019 22:00:00 4,2 -0,2 7,1 58 31 79 42 S 1011,2 0
10.12.2019 21:00:00 4,0 0,4 7,1 61 33 78 42 S 1012,9 0
10.12.2019 20:00:00 3,9 0,5 7,1 56 31 68 37 S 1014,2 0
10.12.2019 19:00:00 4,2 0,2 7,1 52 28 65 35 S 1015,2 0
10.12.2019 18:00:00 4,5 0,5 7,1 42 23 54 29 S 1016,4 0
10.12.2019 17:00:00 4,8 0,9 7,1 37 20 46 25 S 1017,3 0
10.12.2019 16:00:00 5,6 1,5 7,1 37 20 43 23 SSW 1018,5 22
10.12.2019 15:00:00 6,0 1,2 7,2 34 18 40 22 SSW 1019,1 39
10.12.2019 14:00:00 5,8 1,2 7,2 34 18 38 21 SSW 1019,6 3
10.12.2019 13:00:00 5,6 1,4 7,2 30 16 42 23 SW 1020,3 35
10.12.2019 12:00:00 5,1 1,1 7,2 29 15 35 19 SW 1020,6 32
10.12.2019 11:00:00 4,9 1,3 7,2 28 15 32 17 WSW 1020,4 58
10.12.2019 10:00:00 4,3 0,9 7,2 26 14 29 16 WSW 1020,3 43
10.12.2019 09:00:00 4,9 1,2 7,2 24 13 35 19 W 1019,7 0
10.12.2019 08:00:00 5,1 1,2 7,2 31 17 36 19 W 1019,0 0
10.12.2019 07:00:00 5,1 0,7 7,2 33 18 42 23 WNW 1018,0 0
10.12.2019 06:00:00 4,9 -0,1 7,2 36 19 41 22 WNW 1017,1 0
10.12.2019 05:00:00 4,9 0,3 7,2 30 16 44 24 WNW 1016,2 0
10.12.2019 04:00:00 5,2 -0,1 7,3 39 21 52 28 WNW 1014,9 0
10.12.2019 03:00:00 5,5 -0,4 7,3 47 26 54 29 NW 1013,1 0
10.12.2019 02:00:00 5,1 0,3 7,3 41 22 51 27 NW 1012,1 0
10.12.2019 01:00:00 5,2 0,8 7,3 40 22 47 25 WNW 1010,6 0
10.12.2019 00:00:00 5,1 0,4 7,3 35 19 43 23 WNW 1009,1 0
09.12.2019 23:00:00 5,4 0,2 7,3 36 19 63 34 WNW 1007,5 0
09.12.2019 22:00:00 6,2 0,4 7,4 51 28 76 41 NW 1005,8 0
09.12.2019 21:00:00 6,3 1,5 7,4 50 27 62 33 WNW 1003,5 0
09.12.2019 20:00:00 6,5 1,3 7,4 48 26 57 31 W 1001,8 0
09.12.2019 19:00:00 6,8 1,0 7,4 48 26 59 32 WNW 1000,4 0
09.12.2019 18:00:00 7,0 1,7 7,4 46 25 61 33 WNW 998,9 0
09.12.2019 17:00:00 7,1 2,9 7,4 34 18 47 26 W 997,7 0
09.12.2019 16:00:00 6,9 3,9 7,4 40 21 54 29 W 996,3 0
09.12.2019 15:00:00 7,0 4,0 7,4 40 22 51 28 WSW 994,9 0
09.12.2019 14:00:00 7,0 3,6 7,4 39 21 57 31 WSW 994,1 0
09.12.2019 13:00:00 7,2 3,2 7,4 44 24 65 35 SW 993,2 16
09.12.2019 12:00:00 7,0 3,1 7,4 48 26 68 37 WSW 992,8 0
09.12.2019 11:00:00 6,8 3,0 7,4 54 29 77 41 SW 992,6 5
09.12.2019 10:00:00 6,8 2,9 7,4 60 33 77 42 SW 991,7 19
09.12.2019 09:00:00 6,9 3,0 7,4 61 33 76 41 SW 991,1 0
09.12.2019 08:00:00 6,7 2,9 7,4 61 33 75 41 SW 990,5 0
09.12.2019 07:00:00 6,3 2,9 7,4 56 30 70 38 SW 990,3 0
09.12.2019 06:00:00 6,5 2,7 7,4 58 31 74 40 SW 990,2 0
09.12.2019 05:00:00 6,7 3,1 7,4 56 31 75 40 SW 990,1 0
09.12.2019 04:00:00 6,6 3,0 7,4 63 34 77 42 SW 989,8 0
09.12.2019 03:00:00 6,8 3,3 7,4 55 30 76 41 SW 990,1 0
09.12.2019 02:00:00 7,0 3,0 7,4 59 32 74 40 SW 989,3 0
09.12.2019 01:00:00 6,8 2,9 7,4 57 31 71 38 SW 989,5 0
09.12.2019 00:00:00 7,2 2,7 7,4 58 31 70 38 SW 989,8 0
08.12.2019 23:00:00 7,2 3,6 7,4 54 29 69 37 SW 989,8 0
08.12.2019 22:00:00 7,7 3,2 7,4 64 35 80 43 SW 989,9 0
08.12.2019 21:00:00 8,0 4,0 7,4 54 29 92 50 WSW 990,1 0
08.12.2019 20:00:00 8,2 4,0 7,4 58 32 74 40 SW 990,3 0
08.12.2019 19:00:00 8,3 4,6 7,4 54 29 74 40 WSW 990,4 0
08.12.2019 18:00:00 8,6 5,0 7,4 54 29 71 38 WSW 990,6 0
08.12.2019 17:00:00 9,0 5,6 7,4 60 33 73 40 WSW 990,2 0
08.12.2019 16:00:00 9,0 6,9 7,4 53 29 91 49 WSW 989,8 0
08.12.2019 15:00:00 9,5 6,0 7,5 64 34 83 45 WSW 989,2 3
08.12.2019 14:00:00 9,6 7,2 7,5 67 36 95 51 WSW 989,2 0
08.12.2019 13:00:00 8,9 7,4 7,5 80 43 106 57 SW 989,2 0
08.12.2019 12:00:00 8,3 7,1 7,5 78 42 99 54 SW 989,8 0
08.12.2019 11:00:00 7,8 6,7 7,5 76 41 91 49 SW 991,1 0
08.12.2019 10:00:00 7,3 6,2 7,5 69 37 86 47 SW 992,4 0
08.12.2019 09:00:00 7,8 5,7 7,5 68 37 90 48 SSW 993,4 0
08.12.2019 08:00:00 8,6 4,9 7,4 69 37 88 47 SW 994,7 0
08.12.2019 07:00:00 8,7 5,1 7,4 68 37 89 48 SW 995,6 0
08.12.2019 06:00:00 8,4 5,0 7,4 64 35 85 46 SW 996,8 0
08.12.2019 05:00:00 8,2 4,5 7,4 63 34 77 41 SW 998,7 0
08.12.2019 04:00:00 8,1 4,3 7,4 60 32 75 40 SW 1000,0 0
08.12.2019 03:00:00 8,3 4,3 7,4 51 28 68 37 SW 1001,6 0
08.12.2019 02:00:00 8,3 5,0 7,4 49 26 64 35 SW 1002,9 0
08.12.2019 01:00:00 8,4 5,7 7,4 50 27 64 34 SW 1004,0 0
08.12.2019 00:00:00 8,3 6,1 7,3 44 24 59 32 WSW 1005,0 0
07.12.2019 23:00:00 8,2 6,4 7,3 42 23 50 27 WSW 1005,7 0
07.12.2019 22:00:00 7,9 5,9 7,3 31 17 38 20 WSW 1006,0 0
07.12.2019 21:00:00 7,4 5,8 7,3 26 14 37 20 WSW 1006,3 0
07.12.2019 20:00:00 7,3 6,1 7,3 36 19 44 24 W 1006,4 0
07.12.2019 19:00:00 7,6 5,6 7,3 26 14 40 21 WSW 1006,5 0
07.12.2019 18:00:00 7,8 5,1 7,3 37 20 54 29 W 1006,0 0
07.12.2019 17:00:00 8,0 4,8 7,3 42 23 55 30 W 1005,6 0
07.12.2019 16:00:00 8,1 5,0 7,3 39 21 48 26 W 1005,0 0
07.12.2019 15:00:00 8,3 4,7 7,3 41 22 52 28 W 1004,3 26
07.12.2019 14:00:00 8,6 4,5 7,3 44 24 56 31 W 1003,6 13
07.12.2019 13:00:00 8,5 4,8 7,3 48 26 59 32 W 1003,1 39
07.12.2019 12:00:00 8,7 4,9 7,3 42 23 49 26 W 1002,6 36

tt = Température de l'air
td = dewpoint
tw = water temperature
ff = Vitesse du vent
fx = gusts
dd = Direction du vent
ppp = reduced air pressure
sd = Ensoleillement

stations d'obs. à proximité